createdAt,value
2022-11-14T00:00:42.296Z,1017.42
2022-11-14T00:01:43.168Z,1017.42
2022-11-14T00:02:44.160Z,1017.41
2022-11-14T00:03:44.554Z,1017.40
2022-11-14T00:04:45.440Z,1017.44
2022-11-14T00:05:46.309Z,1017.45
2022-11-14T00:06:47.411Z,1017.41
2022-11-14T00:07:47.765Z,1017.37
2022-11-14T00:08:48.656Z,1017.37
2022-11-14T00:09:49.527Z,1017.37
2022-11-14T00:10:50.407Z,1017.39
2022-11-14T00:11:51.279Z,1017.39
2022-11-14T00:12:52.150Z,1017.38
2022-11-14T00:13:53.039Z,1017.37
2022-11-14T00:14:53.913Z,1017.39
2022-11-14T00:15:54.785Z,1017.40
2022-11-14T00:16:55.656Z,1017.39
2022-11-14T00:17:56.531Z,1017.37
2022-11-14T00:18:57.419Z,1017.36
2022-11-14T00:19:58.292Z,1017.34
2022-11-14T00:20:59.161Z,1017.34
2022-11-14T00:22:00.156Z,1017.31
2022-11-14T00:23:00.964Z,1017.34
2022-11-14T00:24:01.852Z,1017.32
2022-11-14T00:25:02.727Z,1017.35
2022-11-14T00:26:03.598Z,1017.34
2022-11-14T00:27:04.481Z,1017.36
2022-11-14T00:28:05.356Z,1017.42
2022-11-14T00:29:06.241Z,1017.46
2022-11-14T00:30:07.113Z,1017.44
2022-11-14T00:31:07.983Z,1017.46
2022-11-14T00:32:08.875Z,1017.46
2022-11-14T00:33:09.769Z,1017.46
2022-11-14T00:34:10.648Z,1017.48
2022-11-14T00:35:11.550Z,1017.48
2022-11-14T00:36:12.366Z,1017.46
2022-11-14T00:37:13.387Z,1017.50
2022-11-14T00:38:14.198Z,1017.49
2022-11-14T00:39:15.079Z,1017.47
2022-11-14T00:40:15.953Z,1017.50
2022-11-14T00:41:16.823Z,1017.48
2022-11-14T00:42:17.696Z,1017.56
2022-11-14T00:43:18.598Z,1017.50
2022-11-14T00:44:19.460Z,1017.49
2022-11-14T00:45:20.341Z,1017.49
2022-11-14T00:46:21.212Z,1017.49
2022-11-14T00:47:22.085Z,1017.53
2022-11-14T00:48:22.965Z,1017.64
2022-11-14T00:49:23.849Z,1017.64
2022-11-14T00:50:24.719Z,1017.65
2022-11-14T00:51:25.600Z,1017.69
2022-11-14T00:52:26.585Z,1017.75
2022-11-14T00:53:27.393Z,1017.80
2022-11-14T00:54:28.266Z,1017.77
2022-11-14T00:55:29.146Z,1017.75
2022-11-14T00:56:30.023Z,1017.74
2022-11-14T00:57:30.900Z,1017.71
2022-11-14T00:58:32.143Z,1017.68
2022-11-14T00:59:32.634Z,1017.62
2022-11-14T01:00:33.540Z,1017.63
2022-11-14T01:01:34.390Z,1017.63
2022-11-14T01:02:35.260Z,1017.56
2022-11-14T01:03:36.166Z,1017.53
2022-11-14T01:04:37.048Z,1017.49
2022-11-14T01:05:37.936Z,1017.44
2022-11-14T01:06:38.832Z,1017.45
2022-11-14T01:07:39.823Z,1017.46
2022-11-14T01:08:40.634Z,1017.45
2022-11-14T01:09:41.534Z,1017.46
2022-11-14T01:10:42.403Z,1017.49
2022-11-14T01:11:43.296Z,1017.46
2022-11-14T01:12:44.162Z,1017.42
2022-11-14T01:13:45.054Z,1017.40
2022-11-14T01:14:45.927Z,1017.46
2022-11-14T01:15:46.808Z,1017.52
2022-11-14T01:16:47.682Z,1017.56
2022-11-14T01:17:48.569Z,1017.54
2022-11-14T01:18:49.442Z,1017.50
2022-11-14T01:19:50.320Z,1017.46
2022-11-14T01:20:51.186Z,1017.51
2022-11-14T01:21:52.065Z,1017.56
2022-11-14T01:22:53.050Z,1017.55
2022-11-14T01:23:53.864Z,1017.50
2022-11-14T01:24:54.734Z,1017.41
2022-11-14T01:25:55.614Z,1017.29
2022-11-14T01:26:56.487Z,1017.26
2022-11-14T01:27:57.374Z,1017.26
2022-11-14T01:28:58.251Z,1017.22
2022-11-14T01:29:59.134Z,1017.19
2022-11-14T01:31:00.005Z,1017.19
2022-11-14T01:32:00.886Z,1017.18
2022-11-14T01:33:01.758Z,1017.19
2022-11-14T01:34:02.639Z,1017.19
2022-11-14T01:35:03.511Z,1017.22
2022-11-14T01:36:04.395Z,1017.20
2022-11-14T01:37:05.276Z,1017.15
2022-11-14T01:38:06.283Z,1017.17
2022-11-14T01:39:07.079Z,1017.20
2022-11-14T01:40:07.950Z,1017.23
2022-11-14T01:41:08.826Z,1017.23
2022-11-14T01:42:09.698Z,1017.22
2022-11-14T01:43:10.588Z,1017.18
2022-11-14T01:44:11.471Z,1017.16
2022-11-14T01:45:12.353Z,1017.10
2022-11-14T01:46:13.226Z,1017.08
2022-11-14T01:47:14.108Z,1017.07
2022-11-14T01:48:14.990Z,1017.04
2022-11-14T01:49:15.873Z,1017.07
2022-11-14T01:50:16.746Z,1017.08
2022-11-14T01:51:17.628Z,1017.07
2022-11-14T01:52:18.501Z,1017.08
2022-11-14T01:53:19.530Z,1017.09
2022-11-14T01:54:20.330Z,1017.09
2022-11-14T01:55:21.211Z,1017.05
2022-11-14T01:56:22.083Z,1017.04
2022-11-14T01:57:22.964Z,1017.06
2022-11-14T01:58:23.846Z,1017.06
2022-11-14T01:59:24.726Z,1017.04
2022-11-14T02:00:25.598Z,1017.03
2022-11-14T02:01:26.539Z,1017.05
2022-11-14T02:02:27.380Z,1017.06
2022-11-14T02:03:28.263Z,1017.03
2022-11-14T02:04:29.134Z,1017.01
2022-11-14T02:05:30.005Z,1017.01
2022-11-14T02:06:30.879Z,1017.01
2022-11-14T02:07:31.796Z,1017.02
2022-11-14T02:08:32.909Z,1017.04
2022-11-14T02:09:33.297Z,1016.99
2022-11-14T02:10:34.168Z,1016.96
2022-11-14T02:11:35.051Z,1016.99
2022-11-14T02:12:35.922Z,1017.02
2022-11-14T02:13:36.813Z,1016.97
2022-11-14T02:14:37.686Z,1016.98
2022-11-14T02:15:38.567Z,1017.01
2022-11-14T02:16:39.439Z,1017.03
2022-11-14T02:17:40.323Z,1017.08
2022-11-14T02:18:41.202Z,1017.09
2022-11-14T02:19:42.084Z,1017.06
2022-11-14T02:20:42.956Z,1017.04
2022-11-14T02:21:43.836Z,1016.98
2022-11-14T02:22:44.709Z,1016.98
2022-11-14T02:23:45.709Z,1017.01
2022-11-14T02:24:46.520Z,1017.00
2022-11-14T02:25:47.393Z,1017.04
2022-11-14T02:26:48.266Z,1017.01
2022-11-14T02:27:49.147Z,1016.97
2022-11-14T02:28:50.027Z,1016.96
2022-11-14T02:29:50.911Z,1016.95
2022-11-14T02:30:51.782Z,1016.91
2022-11-14T02:31:52.662Z,1016.87
2022-11-14T02:33:55.312Z,1016.93
2022-11-14T02:34:55.185Z,1016.89
2022-11-14T02:35:56.053Z,1016.87
2022-11-14T02:36:56.926Z,1016.91
2022-11-14T02:37:57.805Z,1016.89
2022-11-14T02:38:58.801Z,1016.87
2022-11-14T02:39:59.599Z,1016.86
2022-11-14T02:41:00.472Z,1016.88
2022-11-14T02:42:01.342Z,1016.89
2022-11-14T02:43:02.217Z,1016.92
2022-11-14T02:44:03.106Z,1016.92
2022-11-14T02:45:03.979Z,1016.88
2022-11-14T02:46:05.992Z,1016.88
2022-11-14T02:47:05.373Z,1016.87
2022-11-14T02:48:06.255Z,1016.87
2022-11-14T02:49:07.135Z,1016.91
2022-11-14T02:50:08.016Z,1016.96
2022-11-14T02:51:08.891Z,1017.01
2022-11-14T02:52:09.774Z,1017.03
2022-11-14T02:53:10.671Z,1016.98
2022-11-14T02:54:11.672Z,1016.91
2022-11-14T02:55:12.484Z,1016.92
2022-11-14T02:56:13.366Z,1016.91
2022-11-14T02:57:14.240Z,1016.87
2022-11-14T02:58:15.137Z,1016.85
2022-11-14T02:59:16.025Z,1016.82
2022-11-14T03:00:16.905Z,1016.84
2022-11-14T03:01:21.816Z,1016.84
2022-11-14T03:02:18.313Z,1016.84
2022-11-14T03:03:19.192Z,1016.81
2022-11-14T03:04:20.064Z,1016.79
2022-11-14T03:05:20.936Z,1016.79
2022-11-14T03:06:21.818Z,1016.81
2022-11-14T03:07:22.785Z,1016.81
2022-11-14T03:08:23.629Z,1016.81
2022-11-14T03:09:24.621Z,1016.79
2022-11-14T03:10:25.424Z,1016.84
2022-11-14T03:11:26.298Z,1016.86
2022-11-14T03:12:27.181Z,1016.88
2022-11-14T03:13:28.061Z,1016.86
2022-11-14T03:14:28.940Z,1016.86
2022-11-14T03:15:29.814Z,1016.87
2022-11-14T03:16:30.694Z,1016.84
2022-11-14T03:17:31.566Z,1016.79
2022-11-14T03:18:32.660Z,1016.78
2022-11-14T03:19:33.081Z,1016.77
2022-11-14T03:20:33.953Z,1016.76
2022-11-14T03:21:34.826Z,1016.80
2022-11-14T03:22:35.707Z,1016.81
2022-11-14T03:23:36.590Z,1016.86
2022-11-14T03:24:37.585Z,1016.90
2022-11-14T03:25:38.393Z,1016.87
2022-11-14T03:26:39.274Z,1016.87
2022-11-14T03:27:40.146Z,1016.85
2022-11-14T03:28:41.035Z,1016.87
2022-11-14T03:29:41.909Z,1016.85
2022-11-14T03:30:42.788Z,1016.84
2022-11-14T03:31:43.664Z,1016.82
2022-11-14T03:32:44.533Z,1016.79
2022-11-14T03:33:45.422Z,1016.77
2022-11-14T03:34:46.297Z,1016.74
2022-11-14T03:35:47.169Z,1016.72
2022-11-14T03:36:48.050Z,1016.73
2022-11-14T03:37:51.687Z,1016.74
2022-11-14T03:38:49.695Z,1016.76
2022-11-14T03:39:50.681Z,1016.72
2022-11-14T03:40:51.483Z,1016.76
2022-11-14T03:41:52.356Z,1016.77
2022-11-14T03:42:53.234Z,1016.74
2022-11-14T03:43:54.116Z,1016.73
2022-11-14T03:44:54.997Z,1016.75
2022-11-14T03:45:55.871Z,1016.73
2022-11-14T03:46:56.751Z,1016.71
2022-11-14T03:47:57.625Z,1016.67
2022-11-14T03:48:58.515Z,1016.67
2022-11-14T03:49:59.386Z,1016.71
2022-11-14T03:51:00.271Z,1016.73
2022-11-14T03:52:01.142Z,1016.73
2022-11-14T03:53:02.022Z,1016.70
2022-11-14T03:54:02.905Z,1016.73
2022-11-14T03:55:03.899Z,1016.74
2022-11-14T03:56:04.700Z,1016.74
2022-11-14T03:57:05.580Z,1016.75
2022-11-14T03:58:06.464Z,1016.71
2022-11-14T03:59:07.351Z,1016.67
2022-11-14T04:00:08.223Z,1016.65
2022-11-14T04:01:09.129Z,1016.64
2022-11-14T04:02:09.979Z,1016.62
2022-11-14T04:03:10.872Z,1016.66
2022-11-14T04:04:11.743Z,1016.72
2022-11-14T04:05:12.626Z,1016.71
2022-11-14T04:06:13.499Z,1016.67
2022-11-14T04:07:14.459Z,1016.62
2022-11-14T04:08:14.912Z,1016.64
2022-11-14T04:09:15.788Z,1016.68
2022-11-14T04:10:16.771Z,1016.73
2022-11-14T04:11:17.576Z,1016.81
2022-11-14T04:12:18.449Z,1016.79
2022-11-14T04:13:19.333Z,1016.74
2022-11-14T04:14:20.203Z,1016.71
2022-11-14T04:15:21.091Z,1016.69
2022-11-14T04:16:21.956Z,1016.71
2022-11-14T04:17:22.835Z,1016.72
2022-11-14T04:18:23.725Z,1016.73
2022-11-14T04:19:24.601Z,1016.70
2022-11-14T04:20:25.471Z,1016.68
2022-11-14T04:21:26.351Z,1016.63
2022-11-14T04:22:27.225Z,1016.60
2022-11-14T04:23:28.114Z,1016.61
2022-11-14T04:24:28.986Z,1016.59
2022-11-14T04:25:29.979Z,1016.57
2022-11-14T04:26:30.780Z,1016.57
2022-11-14T04:27:31.658Z,1016.54
2022-11-14T04:28:32.761Z,1016.50
2022-11-14T04:29:33.163Z,1016.51
2022-11-14T04:30:34.917Z,1016.49
2022-11-14T04:31:34.859Z,1016.52
2022-11-14T04:32:35.730Z,1016.52
2022-11-14T04:33:36.621Z,1016.50
2022-11-14T04:34:37.493Z,1016.47
2022-11-14T04:35:38.367Z,1016.44
2022-11-14T04:36:39.238Z,1016.45
2022-11-14T04:37:40.118Z,1016.42
2022-11-14T04:38:40.999Z,1016.43
2022-11-14T04:39:41.882Z,1016.45
2022-11-14T04:40:42.865Z,1016.44
2022-11-14T04:41:43.666Z,1016.44
2022-11-14T04:42:44.537Z,1016.52
2022-11-14T04:43:50.496Z,1016.51
2022-11-14T04:44:47.249Z,1016.51
2022-11-14T04:45:47.079Z,1016.49
2022-11-14T04:46:47.952Z,1016.46
2022-11-14T04:47:48.834Z,1016.45
2022-11-14T04:48:49.717Z,1016.43
2022-11-14T04:49:50.597Z,1016.40
2022-11-14T04:50:51.472Z,1016.40
2022-11-14T04:51:52.352Z,1016.38
2022-11-14T04:52:53.226Z,1016.40
2022-11-14T04:53:54.115Z,1016.40
2022-11-14T04:54:54.989Z,1016.40
2022-11-14T04:55:55.980Z,1016.43
2022-11-14T04:56:56.784Z,1016.44
2022-11-14T04:57:57.664Z,1016.42
2022-11-14T04:58:58.548Z,1016.39
2022-11-14T04:59:59.419Z,1016.38
2022-11-14T05:01:00.351Z,1016.37
2022-11-14T05:02:01.176Z,1016.37
2022-11-14T05:03:02.052Z,1016.37
2022-11-14T05:04:02.936Z,1016.40
2022-11-14T05:05:03.809Z,1016.46
2022-11-14T05:06:04.690Z,1016.47
2022-11-14T05:07:05.639Z,1016.44
2022-11-14T05:08:06.542Z,1016.39
2022-11-14T05:09:07.417Z,1016.38
2022-11-14T05:10:08.296Z,1016.40
2022-11-14T05:11:09.190Z,1016.41
2022-11-14T05:12:10.050Z,1016.44
2022-11-14T05:13:10.933Z,1016.48
2022-11-14T05:14:11.815Z,1016.43
2022-11-14T05:15:12.687Z,1016.41
2022-11-14T05:16:13.561Z,1016.44
2022-11-14T05:17:14.432Z,1016.45
2022-11-14T05:18:15.321Z,1016.48
2022-11-14T05:19:16.197Z,1016.50
2022-11-14T05:20:17.089Z,1016.55
2022-11-14T05:21:17.948Z,1016.54
2022-11-14T05:22:18.828Z,1016.52
2022-11-14T05:23:19.731Z,1016.49
2022-11-14T05:24:20.591Z,1016.47
2022-11-14T05:25:21.463Z,1016.46
2022-11-14T05:26:22.361Z,1016.49
2022-11-14T05:27:23.207Z,1016.53
2022-11-14T05:28:24.087Z,1016.55
2022-11-14T05:29:24.960Z,1016.54
2022-11-14T05:30:25.841Z,1016.55
2022-11-14T05:31:26.716Z,1016.59
2022-11-14T05:32:27.594Z,1016.60
2022-11-14T05:33:28.476Z,1016.62
2022-11-14T05:34:29.352Z,1016.60
2022-11-14T05:35:30.219Z,1016.60
2022-11-14T05:36:31.090Z,1016.62
2022-11-14T05:37:31.968Z,1016.63
2022-11-14T05:38:33.093Z,1016.65
2022-11-14T05:39:33.545Z,1016.65
2022-11-14T05:40:34.427Z,1016.65
2022-11-14T05:41:35.321Z,1016.67
2022-11-14T05:42:36.172Z,1016.68
2022-11-14T05:43:37.051Z,1016.72
2022-11-14T05:44:37.933Z,1016.75
2022-11-14T05:45:38.805Z,1016.76
2022-11-14T05:46:39.691Z,1016.80
2022-11-14T05:47:40.560Z,1016.82
2022-11-14T05:48:41.449Z,1016.82
2022-11-14T05:49:42.323Z,1016.82
2022-11-14T05:50:43.204Z,1016.82
2022-11-14T05:51:44.079Z,1016.79
2022-11-14T05:52:44.958Z,1016.80
2022-11-14T05:53:46.291Z,1016.87
2022-11-14T05:54:46.617Z,1016.92
2022-11-14T05:55:47.490Z,1016.88
2022-11-14T05:56:48.394Z,1016.86
2022-11-14T05:57:49.248Z,1016.87
2022-11-14T05:58:50.129Z,1016.96
2022-11-14T05:59:50.958Z,1016.91
2022-11-14T06:00:54.395Z,1016.90
2022-11-14T06:01:52.574Z,1016.95
2022-11-14T06:02:53.406Z,1016.99
2022-11-14T06:03:54.255Z,1016.96
2022-11-14T06:04:55.072Z,1016.94
2022-11-14T06:05:55.891Z,1016.97
2022-11-14T06:06:56.899Z,1016.97
2022-11-14T06:07:57.735Z,1017.02
2022-11-14T06:08:58.576Z,1016.99
2022-11-14T06:09:59.392Z,1016.95
2022-11-14T06:11:00.224Z,1016.91
2022-11-14T06:12:01.068Z,1016.93
2022-11-14T06:13:01.866Z,1016.93
2022-11-14T06:14:06.886Z,1016.95
2022-11-14T06:15:04.406Z,1016.98
2022-11-14T06:16:04.234Z,1017.03
2022-11-14T06:17:05.055Z,1017.13
2022-11-14T06:18:05.881Z,1017.12
2022-11-14T06:19:06.702Z,1017.10
2022-11-14T06:20:07.528Z,1017.05
2022-11-14T06:21:08.349Z,1017.04
2022-11-14T06:22:09.190Z,1017.00
2022-11-14T06:23:10.012Z,1016.93
2022-11-14T06:24:10.839Z,1016.97
2022-11-14T06:25:11.660Z,1017.04
2022-11-14T06:26:12.486Z,1017.06
2022-11-14T06:27:13.325Z,1017.04
2022-11-14T06:28:14.157Z,1017.09
2022-11-14T06:29:14.975Z,1017.06
2022-11-14T06:30:15.797Z,1017.01
2022-11-14T06:31:16.612Z,1017.04
2022-11-14T06:32:17.439Z,1017.05
2022-11-14T06:33:18.267Z,1017.00
2022-11-14T06:34:19.095Z,1016.96
2022-11-14T06:35:19.915Z,1016.95
2022-11-14T06:36:20.742Z,1016.91
2022-11-14T06:37:21.571Z,1017.01
2022-11-14T06:38:22.407Z,1017.02
2022-11-14T06:39:23.227Z,1017.03
2022-11-14T06:40:24.043Z,1017.02
2022-11-14T06:41:24.865Z,1017.04
2022-11-14T06:42:25.726Z,1017.02
2022-11-14T06:43:26.518Z,1017.06
2022-11-14T06:44:30.821Z,1017.08
2022-11-14T06:45:27.855Z,1017.09
2022-11-14T06:46:28.684Z,1017.04
2022-11-14T06:47:29.503Z,1017.02
2022-11-14T06:48:30.686Z,1016.99
2022-11-14T06:49:31.963Z,1016.94
2022-11-14T06:50:32.006Z,1016.98
2022-11-14T06:51:32.824Z,1016.93
2022-11-14T06:52:33.642Z,1016.92
2022-11-14T06:53:34.469Z,1016.88
2022-11-14T06:54:35.288Z,1016.82
2022-11-14T06:55:36.104Z,1016.80
2022-11-14T06:56:36.920Z,1016.82
2022-11-14T06:57:37.792Z,1016.89
2022-11-14T06:58:38.576Z,1016.88
2022-11-14T06:59:39.396Z,1016.89
2022-11-14T07:00:40.223Z,1016.97
2022-11-14T07:01:41.041Z,1017.01
2022-11-14T07:02:41.875Z,1016.98
2022-11-14T07:03:42.686Z,1017.01
2022-11-14T07:04:43.507Z,1017.01
2022-11-14T07:05:44.323Z,1017.10
2022-11-14T07:06:45.289Z,1017.03
2022-11-14T07:07:46.083Z,1016.98
2022-11-14T07:08:46.924Z,1016.90
2022-11-14T07:09:47.757Z,1016.88
2022-11-14T07:10:48.585Z,1016.87
2022-11-14T07:11:49.403Z,1016.86
2022-11-14T07:12:50.268Z,1016.85
2022-11-14T07:13:51.074Z,1016.90
2022-11-14T07:14:51.890Z,1016.85
2022-11-14T07:15:52.714Z,1016.80
2022-11-14T07:16:53.525Z,1016.75
2022-11-14T07:17:54.344Z,1016.71
2022-11-14T07:18:55.180Z,1016.73
2022-11-14T07:19:56.000Z,1016.80
2022-11-14T07:20:56.816Z,1016.75
2022-11-14T07:21:57.656Z,1016.71
2022-11-14T07:22:58.453Z,1016.74
2022-11-14T07:23:59.282Z,1016.69
2022-11-14T07:25:00.119Z,1016.74
2022-11-14T07:26:00.931Z,1016.75
2022-11-14T07:27:01.755Z,1016.74
2022-11-14T07:28:02.595Z,1016.73
2022-11-14T07:29:03.424Z,1016.72
2022-11-14T07:30:04.245Z,1016.74
2022-11-14T07:31:05.062Z,1016.77
2022-11-14T07:32:05.881Z,1016.77
2022-11-14T07:33:06.718Z,1016.77
2022-11-14T07:34:07.537Z,1016.80
2022-11-14T07:35:08.363Z,1016.79
2022-11-14T07:36:09.323Z,1016.77
2022-11-14T07:37:10.150Z,1016.78
2022-11-14T07:38:10.981Z,1016.80
2022-11-14T07:39:11.809Z,1016.85
2022-11-14T07:40:12.628Z,1016.84
2022-11-14T07:41:13.444Z,1016.80
2022-11-14T07:42:14.267Z,1016.89
2022-11-14T07:43:15.122Z,1016.90
2022-11-14T07:44:15.921Z,1016.80
2022-11-14T07:45:16.744Z,1016.74
2022-11-14T07:46:17.557Z,1016.71
2022-11-14T07:47:18.386Z,1016.78
2022-11-14T07:48:19.214Z,1016.76
2022-11-14T07:49:20.054Z,1016.73
2022-11-14T07:50:20.867Z,1016.81
2022-11-14T07:51:21.687Z,1016.84
2022-11-14T07:52:22.506Z,1016.86
2022-11-14T07:53:23.331Z,1016.89
2022-11-14T07:54:24.158Z,1016.79
2022-11-14T07:55:24.991Z,1016.81
2022-11-14T07:56:25.805Z,1016.81
2022-11-14T07:57:26.638Z,1016.78
2022-11-14T07:58:27.644Z,1016.75
2022-11-14T07:59:28.017Z,1016.75
2022-11-14T08:00:28.831Z,1016.76
2022-11-14T08:01:29.752Z,1016.77
2022-11-14T08:02:30.550Z,1016.77
2022-11-14T08:03:31.386Z,1016.74
2022-11-14T08:04:32.205Z,1016.71
2022-11-14T08:05:33.023Z,1016.68
2022-11-14T08:06:33.843Z,1016.71
2022-11-14T08:07:34.756Z,1016.68
2022-11-14T08:08:35.179Z,1016.61
2022-11-14T08:09:36.006Z,1016.56
2022-11-14T08:10:36.826Z,1016.57
2022-11-14T08:11:37.640Z,1016.62
2022-11-14T08:12:38.481Z,1016.57
2022-11-14T08:13:39.344Z,1016.50
2022-11-14T08:14:40.134Z,1016.54
2022-11-14T08:15:40.959Z,1016.52
2022-11-14T08:16:41.779Z,1016.53
2022-11-14T08:17:42.598Z,1016.56
2022-11-14T08:18:43.424Z,1016.56
2022-11-14T08:19:44.254Z,1016.59
2022-11-14T08:20:45.076Z,1016.55
2022-11-14T08:21:45.891Z,1016.55
2022-11-14T08:22:46.710Z,1016.58
2022-11-14T08:23:47.547Z,1016.56
2022-11-14T08:24:48.366Z,1016.60
2022-11-14T08:25:49.183Z,1016.57
2022-11-14T08:26:50.002Z,1016.61
2022-11-14T08:27:50.831Z,1016.59
2022-11-14T08:28:51.680Z,1016.58
2022-11-14T08:29:52.485Z,1016.57
2022-11-14T08:30:53.298Z,1016.55
2022-11-14T08:31:58.639Z,1016.51
2022-11-14T08:32:55.832Z,1016.46
2022-11-14T08:33:55.668Z,1016.43
2022-11-14T08:34:56.486Z,1016.44
2022-11-14T08:35:57.315Z,1016.44
2022-11-14T08:36:58.136Z,1016.44
2022-11-14T08:37:58.964Z,1016.42
2022-11-14T08:39:01.963Z,1016.40
2022-11-14T08:40:00.623Z,1016.45
2022-11-14T08:41:01.444Z,1016.46
2022-11-14T08:42:02.270Z,1016.41
2022-11-14T08:43:03.090Z,1016.42
2022-11-14T08:44:03.980Z,1016.45
2022-11-14T08:45:04.786Z,1016.49
2022-11-14T08:46:05.604Z,1016.47
2022-11-14T08:47:06.422Z,1016.44
2022-11-14T08:48:07.242Z,1016.39
2022-11-14T08:49:08.069Z,1016.37
2022-11-14T08:50:08.895Z,1016.35
2022-11-14T08:51:09.714Z,1016.33
2022-11-14T08:52:15.399Z,1016.37
2022-11-14T08:53:12.249Z,1016.36
2022-11-14T08:54:12.095Z,1016.33
2022-11-14T08:55:12.916Z,1016.30
2022-11-14T08:56:13.742Z,1016.30
2022-11-14T08:57:14.573Z,1016.29
2022-11-14T08:58:15.420Z,1016.24
2022-11-14T08:59:16.282Z,1016.27
2022-11-14T09:00:17.089Z,1016.29
2022-11-14T09:01:17.898Z,1016.28
2022-11-14T09:02:18.716Z,1016.19
2022-11-14T09:03:19.647Z,1016.25
2022-11-14T09:04:20.504Z,1016.23
2022-11-14T09:05:21.321Z,1016.21
2022-11-14T09:06:22.151Z,1016.24
2022-11-14T09:07:23.061Z,1016.20
2022-11-14T09:08:23.874Z,1016.21
2022-11-14T09:09:24.692Z,1016.17
2022-11-14T09:10:25.509Z,1016.23
2022-11-14T09:11:26.331Z,1016.27
2022-11-14T09:12:27.145Z,1016.28
2022-11-14T09:13:28.236Z,1016.34
2022-11-14T09:14:28.718Z,1016.29
2022-11-14T09:15:29.516Z,1016.33
2022-11-14T09:16:30.336Z,1016.36
2022-11-14T09:17:31.157Z,1016.41
2022-11-14T09:18:32.446Z,1016.32
2022-11-14T09:19:32.592Z,1016.40
2022-11-14T09:20:38.813Z,1016.35
2022-11-14T09:21:35.132Z,1016.34
2022-11-14T09:22:34.951Z,1016.41
2022-11-14T09:23:35.778Z,1016.43
2022-11-14T09:24:36.597Z,1016.33
2022-11-14T09:25:37.420Z,1016.27
2022-11-14T09:26:38.234Z,1016.24
2022-11-14T09:27:39.054Z,1016.23
2022-11-14T09:28:39.892Z,1016.24
2022-11-14T09:29:40.734Z,1016.29
2022-11-14T09:30:41.530Z,1016.31
2022-11-14T09:31:42.349Z,1016.28
2022-11-14T09:32:43.168Z,1016.34
2022-11-14T09:33:44.000Z,1016.29
2022-11-14T09:34:44.821Z,1016.34
2022-11-14T09:35:45.636Z,1016.43
2022-11-14T09:36:46.465Z,1016.39
2022-11-14T09:37:47.282Z,1016.41
2022-11-14T09:38:48.119Z,1016.44
2022-11-14T09:39:48.940Z,1016.52
2022-11-14T09:40:49.767Z,1016.45
2022-11-14T09:41:50.586Z,1016.50
2022-11-14T09:42:51.414Z,1016.50
2022-11-14T09:43:52.240Z,1016.52
2022-11-14T09:44:53.087Z,1016.49
2022-11-14T09:45:53.892Z,1016.52
2022-11-14T09:46:54.713Z,1016.58
2022-11-14T09:47:55.531Z,1016.56
2022-11-14T09:48:56.369Z,1016.48
2022-11-14T09:49:57.185Z,1016.58
2022-11-14T09:50:58.015Z,1016.62
2022-11-14T09:51:58.830Z,1016.64
2022-11-14T09:52:59.647Z,1016.61
2022-11-14T09:54:00.476Z,1016.56
2022-11-14T09:55:01.305Z,1016.61
2022-11-14T09:56:02.123Z,1016.62
2022-11-14T09:57:02.949Z,1016.64
2022-11-14T09:58:03.776Z,1016.58
2022-11-14T09:59:04.603Z,1016.66
2022-11-14T10:00:05.460Z,1016.64
2022-11-14T10:01:09.300Z,1016.62
2022-11-14T10:02:07.150Z,1016.63
2022-11-14T10:03:07.961Z,1016.65
2022-11-14T10:04:09.683Z,1016.62
2022-11-14T10:05:09.551Z,1016.62
2022-11-14T10:06:10.369Z,1016.61
2022-11-14T10:07:11.217Z,1016.62
2022-11-14T10:08:12.023Z,1016.64
2022-11-14T10:09:12.841Z,1016.74
2022-11-14T10:10:13.660Z,1016.71
2022-11-14T10:11:14.476Z,1016.68
2022-11-14T10:12:15.304Z,1016.65
2022-11-14T10:13:16.122Z,1016.67
2022-11-14T10:14:16.940Z,1016.73
2022-11-14T10:15:17.577Z,1016.72
2022-11-14T10:16:18.374Z,1016.69
2022-11-14T10:17:19.202Z,1016.78
2022-11-14T10:18:20.038Z,1016.66
2022-11-14T10:19:20.939Z,1016.63
2022-11-14T10:20:21.682Z,1016.67
2022-11-14T10:21:22.500Z,1016.71
2022-11-14T10:22:23.355Z,1016.70
2022-11-14T10:23:24.213Z,1016.69
2022-11-14T10:24:25.011Z,1016.73
2022-11-14T10:25:25.833Z,1016.81
2022-11-14T10:26:26.656Z,1016.77
2022-11-14T10:27:27.475Z,1016.78
2022-11-14T10:28:28.584Z,1016.89
2022-11-14T10:29:29.020Z,1016.77
2022-11-14T10:30:29.884Z,1016.88
2022-11-14T10:31:30.667Z,1016.89
2022-11-14T10:32:31.492Z,1016.81
2022-11-14T10:33:32.322Z,1016.91
2022-11-14T10:34:33.145Z,1016.96
2022-11-14T10:35:35.404Z,1016.97
2022-11-14T10:36:34.734Z,1017.01
2022-11-14T10:37:35.549Z,1017.03
2022-11-14T10:38:36.378Z,1016.96
2022-11-14T10:39:37.195Z,1016.97
2022-11-14T10:40:38.012Z,1017.06
2022-11-14T10:42:08.353Z,1017.03
2022-11-14T10:42:40.541Z,1017.13
2022-11-14T10:43:40.369Z,1017.09
2022-11-14T10:44:41.186Z,1017.09
2022-11-14T10:45:42.025Z,1017.10
2022-11-14T10:46:42.822Z,1017.06
2022-11-14T10:47:43.641Z,1016.99
2022-11-14T10:48:44.477Z,1017.00
2022-11-14T10:49:45.386Z,1017.06
2022-11-14T10:50:46.204Z,1017.00
2022-11-14T10:51:47.022Z,1017.01
2022-11-14T10:52:47.838Z,1017.08
2022-11-14T10:53:48.665Z,1017.10
2022-11-14T10:54:49.483Z,1017.03
2022-11-14T10:56:03.850Z,1017.00
2022-11-14T10:56:52.027Z,1017.03
2022-11-14T10:57:51.838Z,1017.01
2022-11-14T10:58:52.670Z,1016.99
2022-11-14T10:59:53.499Z,1017.00
2022-11-14T11:00:54.506Z,1017.00
2022-11-14T11:01:55.305Z,1017.04
2022-11-14T11:02:56.122Z,1016.98
2022-11-14T11:03:57.040Z,1017.00
2022-11-14T11:04:57.826Z,1017.00
2022-11-14T11:05:58.643Z,1017.03
2022-11-14T11:06:59.517Z,1017.02
2022-11-14T11:08:15.072Z,1017.06
2022-11-14T11:09:02.075Z,1017.08
2022-11-14T11:10:01.894Z,1017.07
2022-11-14T11:11:02.723Z,1017.13
2022-11-14T11:12:03.540Z,1017.12
2022-11-14T11:13:04.417Z,1017.11
2022-11-14T11:14:05.255Z,1017.07
2022-11-14T11:15:06.070Z,1017.02
2022-11-14T11:16:06.912Z,1017.05
2022-11-14T11:17:07.721Z,1017.10
2022-11-14T11:18:08.538Z,1017.12
2022-11-14T11:19:09.388Z,1017.13
2022-11-14T11:20:10.216Z,1017.01
2022-11-14T11:21:11.069Z,1017.06
2022-11-14T11:22:11.871Z,1017.08
2022-11-14T11:23:12.704Z,1017.12
2022-11-14T11:24:13.536Z,1017.10
2022-11-14T11:25:14.359Z,1017.10
2022-11-14T11:26:15.179Z,1017.08
2022-11-14T11:27:16.006Z,1017.06
2022-11-14T11:28:16.845Z,1017.15
2022-11-14T11:29:17.819Z,1017.08
2022-11-14T11:30:18.596Z,1017.02
2022-11-14T11:31:19.429Z,1016.98
2022-11-14T11:32:20.225Z,1016.95
2022-11-14T11:33:21.058Z,1016.95
2022-11-14T11:34:21.881Z,1016.98
2022-11-14T11:35:22.708Z,1017.04
2022-11-14T11:36:23.527Z,1016.97
2022-11-14T11:37:24.407Z,1017.00
2022-11-14T11:38:25.181Z,1017.04
2022-11-14T11:39:26.008Z,1017.05
2022-11-14T11:40:26.826Z,1017.06
2022-11-14T11:42:07.830Z,1017.08
2022-11-14T11:43:06.246Z,1017.06
2022-11-14T11:43:39.216Z,1017.01
2022-11-14T11:44:30.789Z,1017.07
2022-11-14T11:45:30.608Z,1017.00
2022-11-14T11:46:31.441Z,1016.96
2022-11-14T11:47:32.238Z,1016.99
2022-11-14T11:48:33.057Z,1017.01
2022-11-14T11:49:33.891Z,1017.00
2022-11-14T11:50:34.711Z,1017.00
2022-11-14T11:51:35.538Z,1017.07
2022-11-14T11:52:36.357Z,1017.07
2022-11-14T11:53:37.183Z,1017.11
2022-11-14T11:54:38.013Z,1017.08
2022-11-14T11:55:38.840Z,1017.06
2022-11-14T11:56:39.659Z,1017.02
2022-11-14T11:57:40.486Z,1017.06
2022-11-14T11:58:41.315Z,1017.02
2022-11-14T11:59:42.164Z,1017.04
2022-11-14T12:00:42.978Z,1017.06
2022-11-14T12:01:43.814Z,1017.02
2022-11-14T12:02:49.522Z,1017.06
2022-11-14T12:03:46.450Z,1017.05
2022-11-14T12:04:45.833Z,1017.07
2022-11-14T12:05:46.653Z,1017.06
2022-11-14T12:06:47.558Z,1017.03
2022-11-14T12:07:48.367Z,1016.99
2022-11-14T12:08:49.183Z,1017.01
2022-11-14T12:10:09.878Z,1017.00
2022-11-14T12:10:51.724Z,1016.99
2022-11-14T12:11:51.543Z,1016.99
2022-11-14T12:12:52.370Z,1016.99
2022-11-14T12:13:53.187Z,1016.99
2022-11-14T12:14:54.028Z,1017.01
2022-11-14T12:15:54.843Z,1017.06
2022-11-14T12:16:55.683Z,1017.10